Laona, Wisconsin
Current Conditions -  °F | °C
As of 3:26 PM on Wednesday 17 Dec 2014 (Local Time) from KIMT Reporting Station
Unknown Precip Unknown Precip  
Wind Chill: 14°   Ceiling: 2100
Heat Index: 25°   Visibility: 7mi
Dew Point: 19°   Wind: 13mph
Humidity: 78%   Direction: 320°NW
Pressure: 30.11"   Gusts: NA
Location:  45.56°N, 88.67°W
Report Text: KIMT 172126Z AUTO 32011KT 7SM UP BKN021 OVC029 M04/M07 A3011 RMK AO2 UPB23 P0000 T10391072
Loading
Personal Weather Stations






























Interactive Weather Map New forecast layout! Learn more

10-Day Weather Forecast

Advertisements
Track Severe Weather on mobile